createdAt,value
2023-02-27T00:00:54.943Z,13.05
2023-02-27T00:03:22.416Z,9.32
2023-02-27T00:05:49.957Z,12.77
2023-02-27T00:08:17.336Z,14.85
2023-02-27T00:10:44.876Z,11.43
2023-02-27T00:13:12.516Z,8.98
2023-02-27T00:15:41.136Z,11.88
2023-02-27T00:18:08.737Z,11.18
2023-02-27T00:20:38.348Z,10.45
2023-02-27T00:23:06.954Z,10.05
2023-02-27T00:25:35.017Z,10.80
2023-02-27T00:28:02.837Z,11.20
2023-02-27T00:30:30.454Z,12.40
2023-02-27T00:32:58.175Z,11.38
2023-02-27T00:35:25.654Z,8.75
2023-02-27T00:37:53.180Z,10.55
2023-02-27T00:40:20.745Z,11.40
2023-02-27T00:42:49.430Z,11.25
2023-02-27T00:45:17.038Z,10.75
2023-02-27T00:47:44.522Z,10.05
2023-02-27T00:50:12.539Z,9.50
2023-02-27T00:52:40.082Z,9.70
2023-02-27T00:55:08.990Z,9.68
2023-02-27T00:57:36.509Z,8.45
2023-02-27T01:00:06.312Z,9.50
2023-02-27T01:02:33.923Z,10.00
2023-02-27T01:05:01.753Z,9.23
2023-02-27T01:07:31.190Z,8.07
2023-02-27T01:09:59.032Z,8.85
2023-02-27T01:12:26.607Z,8.00
2023-02-27T01:14:54.166Z,7.93
2023-02-27T01:17:21.650Z,9.20
2023-02-27T01:19:49.050Z,9.02
2023-02-27T01:22:16.659Z,13.40
2023-02-27T01:24:44.133Z,11.02
2023-02-27T01:27:11.623Z,8.35
2023-02-27T01:29:39.129Z,9.80
2023-02-27T01:32:07.058Z,10.07
2023-02-27T01:34:34.710Z,9.95
2023-02-27T01:37:02.923Z,9.55
2023-02-27T01:39:32.857Z,9.23
2023-02-27T01:42:01.067Z,9.80
2023-02-27T01:44:30.256Z,10.07
2023-02-27T01:46:57.816Z,12.13
2023-02-27T01:49:30.759Z,9.57
2023-02-27T01:52:09.197Z,10.73
2023-02-27T01:54:38.720Z,9.10
2023-02-27T01:57:06.892Z,10.10
2023-02-27T01:59:36.011Z,11.55
2023-02-27T02:02:05.802Z,10.70
2023-02-27T02:04:37.194Z,9.05
2023-02-27T02:07:10.855Z,9.98
2023-02-27T02:09:43.005Z,11.00
2023-02-27T02:12:12.632Z,9.63
2023-02-27T02:14:40.028Z,12.35
2023-02-27T02:17:24.941Z,10.10
2023-02-27T02:20:12.068Z,12.20
2023-02-27T02:22:45.664Z,10.75
2023-02-27T02:28:22.360Z,11.40
2023-02-27T02:31:08.647Z,12.60
2023-02-27T02:33:54.849Z,15.50
2023-02-27T02:36:22.439Z,11.40
2023-02-27T02:39:08.743Z,13.02
2023-02-27T02:41:54.540Z,12.00
2023-02-27T02:47:26.627Z,11.68
2023-02-27T02:49:56.973Z,11.70
2023-02-27T02:52:25.147Z,13.70
2023-02-27T02:54:55.688Z,14.75
2023-02-27T02:57:31.833Z,15.98
2023-02-27T02:59:59.268Z,14.63
2023-02-27T03:02:31.896Z,15.40
2023-02-27T03:04:59.392Z,13.45
2023-02-27T03:07:30.910Z,15.52
2023-02-27T03:10:03.694Z,14.13
2023-02-27T03:12:32.406Z,15.80
2023-02-27T03:15:03.896Z,16.65
2023-02-27T03:17:41.218Z,16.67
2023-02-27T03:20:10.263Z,16.95
2023-02-27T03:22:42.959Z,17.50
2023-02-27T03:25:12.284Z,22.25
2023-02-27T03:27:52.961Z,18.38
2023-02-27T03:30:27.222Z,14.43
2023-02-27T03:32:59.001Z,20.33
2023-02-27T03:35:29.979Z,24.67
2023-02-27T03:38:00.992Z,18.98
2023-02-27T03:40:32.399Z,23.15
2023-02-27T03:43:06.272Z,18.73
2023-02-27T03:46:03.024Z,33.78
2023-02-27T03:48:30.781Z,33.10
2023-02-27T03:50:59.105Z,29.60
2023-02-27T03:53:34.175Z,29.75
2023-02-27T03:56:02.777Z,32.38
2023-02-27T03:58:30.941Z,33.50
2023-02-27T04:00:58.655Z,29.73
2023-02-27T04:03:26.518Z,35.30
2023-02-27T04:05:54.276Z,33.17
2023-02-27T04:08:28.699Z,29.13
2023-02-27T04:11:14.699Z,31.17
2023-02-27T04:13:45.945Z,35.03
2023-02-27T04:16:31.610Z,34.30
2023-02-27T04:18:59.003Z,29.13
2023-02-27T04:21:32.639Z,31.27
2023-02-27T04:24:00.155Z,32.60
2023-02-27T04:26:31.214Z,31.60
2023-02-27T04:29:01.921Z,30.67
2023-02-27T04:31:32.176Z,31.40
2023-02-27T04:34:18.497Z,32.17
2023-02-27T04:36:49.476Z,30.42
2023-02-27T04:39:25.485Z,33.80
2023-02-27T04:41:59.216Z,26.83
2023-02-27T04:44:27.999Z,30.38
2023-02-27T04:46:57.013Z,33.22
2023-02-27T04:49:28.030Z,27.55
2023-02-27T04:51:59.685Z,30.33
2023-02-27T04:54:32.937Z,29.63
2023-02-27T04:57:02.336Z,25.00
2023-02-27T04:59:36.267Z,32.38
2023-02-27T05:02:25.178Z,28.42
2023-02-27T05:04:56.317Z,27.63
2023-02-27T05:07:30.461Z,27.45
2023-02-27T05:10:03.443Z,25.20
2023-02-27T05:12:45.240Z,27.23
2023-02-27T05:15:15.563Z,28.52
2023-02-27T05:17:43.004Z,26.50
2023-02-27T05:20:12.741Z,28.13
2023-02-27T05:22:46.062Z,36.40
2023-02-27T05:25:16.727Z,31.15
2023-02-27T05:28:04.453Z,31.77
2023-02-27T05:30:41.092Z,30.52
2023-02-27T05:33:08.595Z,32.08
2023-02-27T05:35:41.182Z,37.20
2023-02-27T05:38:12.667Z,33.63
2023-02-27T05:40:48.868Z,34.53
2023-02-27T05:43:19.518Z,30.42
2023-02-27T05:45:48.608Z,28.80
2023-02-27T05:48:19.889Z,30.58
2023-02-27T05:50:49.117Z,27.75
2023-02-27T05:53:19.203Z,31.40
2023-02-27T05:55:49.690Z,29.77
2023-02-27T05:58:21.910Z,30.38
2023-02-27T06:00:49.364Z,29.45
2023-02-27T06:03:16.940Z,34.58
2023-02-27T06:05:44.854Z,28.77
2023-02-27T06:08:12.474Z,37.15
2023-02-27T06:10:39.935Z,40.38
2023-02-27T06:13:07.302Z,29.08
2023-02-27T06:15:34.804Z,32.80
2023-02-27T06:18:02.331Z,31.10
2023-02-27T06:20:29.775Z,32.65
2023-02-27T06:22:57.185Z,31.90
2023-02-27T06:25:24.786Z,28.58
2023-02-27T06:27:52.195Z,27.13
2023-02-27T06:30:19.767Z,26.75
2023-02-27T06:32:47.150Z,29.58
2023-02-27T06:35:14.551Z,33.17
2023-02-27T06:37:41.964Z,34.95
2023-02-27T06:40:11.608Z,37.60
2023-02-27T06:42:39.637Z,34.70
2023-02-27T06:45:07.321Z,31.52
2023-02-27T06:47:34.709Z,30.63
2023-02-27T06:50:02.605Z,28.30
2023-02-27T06:52:30.160Z,28.77
2023-02-27T06:54:57.892Z,29.25
2023-02-27T06:57:25.835Z,29.40
2023-02-27T06:59:53.257Z,28.48
2023-02-27T07:02:20.644Z,24.92
2023-02-27T07:04:48.133Z,28.15
2023-02-27T07:07:33.907Z,23.77
2023-02-27T07:10:03.318Z,24.00
2023-02-27T07:12:30.752Z,26.33
2023-02-27T07:14:59.145Z,26.13
2023-02-27T07:17:26.575Z,23.95
2023-02-27T07:19:54.651Z,23.90
2023-02-27T07:22:22.110Z,22.45
2023-02-27T07:24:49.509Z,22.83
2023-02-27T07:27:16.873Z,23.48
2023-02-27T07:29:44.382Z,23.73
2023-02-27T07:32:11.953Z,20.88
2023-02-27T07:34:39.412Z,19.77
2023-02-27T07:37:06.957Z,20.90
2023-02-27T07:39:34.412Z,16.83
2023-02-27T07:42:02.067Z,18.83
2023-02-27T07:44:29.639Z,17.50
2023-02-27T07:46:57.221Z,17.63
2023-02-27T07:49:24.744Z,16.33
2023-02-27T07:51:52.189Z,17.33
2023-02-27T07:54:19.724Z,16.80
2023-02-27T07:56:47.179Z,16.25
2023-02-27T07:59:14.663Z,18.08
2023-02-27T08:01:42.061Z,19.38
2023-02-27T08:04:09.745Z,18.05
2023-02-27T08:06:37.207Z,16.20
2023-02-27T08:09:04.779Z,15.43
2023-02-27T08:11:32.181Z,19.05
2023-02-27T08:14:01.517Z,15.60
2023-02-27T08:16:30.792Z,16.88
2023-02-27T08:18:58.654Z,17.77
2023-02-27T08:21:26.800Z,14.30
2023-02-27T08:23:54.663Z,20.08
2023-02-27T08:26:22.179Z,18.10
2023-02-27T08:28:49.708Z,15.90
2023-02-27T08:31:17.297Z,20.65
2023-02-27T08:33:44.850Z,20.35
2023-02-27T08:36:12.307Z,20.52
2023-02-27T08:38:39.937Z,16.42
2023-02-27T08:41:07.581Z,15.60
2023-02-27T08:43:35.252Z,16.10
2023-02-27T08:46:02.739Z,16.50
2023-02-27T08:48:30.205Z,15.38
2023-02-27T08:50:58.096Z,18.83
2023-02-27T08:53:26.105Z,16.63
2023-02-27T08:55:53.779Z,15.95
2023-02-27T08:58:21.626Z,15.98
2023-02-27T09:00:49.134Z,16.55
2023-02-27T09:03:16.646Z,16.00
2023-02-27T09:05:44.159Z,16.90
2023-02-27T09:08:11.777Z,18.67
2023-02-27T09:10:39.311Z,18.58
2023-02-27T09:13:07.017Z,16.75
2023-02-27T09:15:38.008Z,14.93
2023-02-27T09:18:07.049Z,15.75
2023-02-27T09:20:40.279Z,15.88
2023-02-27T09:23:08.004Z,15.60
2023-02-27T09:25:35.496Z,20.67
2023-02-27T09:28:03.082Z,17.38
2023-02-27T09:30:30.547Z,16.42
2023-02-27T09:32:58.248Z,15.48
2023-02-27T09:35:25.847Z,15.68
2023-02-27T09:37:53.473Z,16.40
2023-02-27T09:40:23.808Z,17.88
2023-02-27T09:42:52.065Z,16.67
2023-02-27T09:45:24.594Z,17.73
2023-02-27T09:47:55.018Z,16.67
2023-02-27T09:50:37.966Z,14.75
2023-02-27T09:53:07.016Z,16.30
2023-02-27T09:55:38.494Z,18.55
2023-02-27T09:58:21.436Z,17.15
2023-02-27T10:00:58.332Z,17.98
2023-02-27T10:03:38.236Z,18.67
2023-02-27T10:06:24.153Z,19.23
2023-02-27T10:08:54.893Z,20.80
2023-02-27T10:11:32.316Z,18.27
2023-02-27T10:14:11.892Z,17.17
2023-02-27T10:16:40.115Z,11.65
2023-02-27T10:19:11.629Z,11.30
2023-02-27T10:21:40.786Z,10.20
2023-02-27T10:24:13.207Z,13.25
2023-02-27T10:26:42.526Z,11.45
2023-02-27T10:29:15.823Z,8.85
2023-02-27T10:31:44.227Z,7.60
2023-02-27T10:34:16.227Z,6.72
2023-02-27T10:36:45.535Z,7.50
2023-02-27T10:39:14.657Z,8.10
2023-02-27T10:41:43.374Z,5.35
2023-02-27T10:44:11.911Z,5.70
2023-02-27T10:46:40.926Z,5.20
2023-02-27T10:49:16.023Z,8.20
2023-02-27T10:51:47.390Z,6.82
2023-02-27T10:54:32.764Z,6.75
2023-02-27T10:57:05.412Z,7.80
2023-02-27T10:59:34.459Z,8.02
2023-02-27T11:02:04.579Z,9.05
2023-02-27T11:04:33.921Z,7.13
2023-02-27T11:07:02.209Z,7.05
2023-02-27T11:09:32.473Z,6.65
2023-02-27T11:12:13.621Z,7.47
2023-02-27T11:14:49.697Z,6.40
2023-02-27T11:17:36.886Z,7.03
2023-02-27T11:20:08.559Z,7.55
2023-02-27T11:22:36.035Z,7.88
2023-02-27T11:25:24.138Z,8.15
2023-02-27T11:27:52.365Z,7.80
2023-02-27T11:30:31.562Z,6.95
2023-02-27T11:33:00.449Z,8.95
2023-02-27T11:35:32.511Z,7.28
2023-02-27T11:38:01.992Z,9.70
2023-02-27T11:40:33.708Z,7.45
2023-02-27T11:43:05.394Z,8.32
2023-02-27T11:46:20.352Z,7.95
2023-02-27T11:51:03.833Z,8.80
2023-02-27T11:56:00.976Z,7.45
2023-02-27T11:58:31.294Z,10.25
2023-02-27T12:01:01.875Z,8.07
2023-02-27T12:03:44.695Z,8.65
2023-02-27T12:06:15.825Z,8.35
2023-02-27T12:08:49.500Z,8.20
2023-02-27T12:11:22.549Z,8.25
2023-02-27T12:13:54.623Z,10.45
2023-02-27T12:16:40.977Z,8.23
2023-02-27T12:19:27.203Z,10.10
2023-02-27T12:21:57.002Z,10.25
2023-02-27T12:24:27.599Z,9.45
2023-02-27T12:27:13.880Z,7.82
2023-02-27T12:29:56.889Z,9.57
2023-02-27T12:32:31.577Z,7.38
2023-02-27T12:35:12.229Z,11.65
2023-02-27T12:37:39.777Z,9.30
2023-02-27T12:40:10.847Z,8.90
2023-02-27T12:42:47.684Z,7.85
2023-02-27T12:45:24.684Z,7.63
2023-02-27T12:47:55.086Z,7.93
2023-02-27T12:50:23.953Z,7.03
2023-02-27T12:53:20.775Z,7.10
2023-02-27T12:55:51.477Z,7.00
2023-02-27T12:58:36.217Z,8.55
2023-02-27T13:01:08.263Z,7.65
2023-02-27T13:03:44.635Z,10.77
2023-02-27T13:06:15.282Z,5.72
2023-02-27T13:09:03.624Z,7.40
2023-02-27T13:11:31.054Z,8.35
2023-02-27T13:14:33.635Z,6.13
2023-02-27T13:17:05.753Z,8.98
2023-02-27T13:19:36.876Z,5.90
2023-02-27T13:22:19.559Z,6.28
2023-02-27T13:24:49.193Z,6.90
2023-02-27T13:27:25.221Z,6.35
2023-02-27T13:30:13.155Z,6.18
2023-02-27T13:32:44.785Z,8.18
2023-02-27T13:35:21.536Z,8.23
2023-02-27T13:37:57.359Z,7.68
2023-02-27T13:40:29.368Z,8.25
2023-02-27T13:42:58.324Z,7.85
2023-02-27T13:45:44.657Z,7.90
2023-02-27T13:48:32.104Z,6.78
2023-02-27T13:51:00.200Z,9.30
2023-02-27T13:53:29.050Z,7.50
2023-02-27T13:56:01.108Z,8.23
2023-02-27T13:58:30.209Z,10.90
2023-02-27T14:00:59.990Z,8.63
2023-02-27T14:03:30.174Z,8.00
2023-02-27T14:05:59.448Z,7.97
2023-02-27T14:08:31.214Z,8.45
2023-02-27T14:11:02.759Z,7.32
2023-02-27T14:13:49.271Z,8.77
2023-02-27T14:16:35.235Z,8.02
2023-02-27T14:19:02.826Z,7.18
2023-02-27T14:21:48.940Z,7.75
2023-02-27T14:24:17.411Z,9.98
2023-02-27T14:26:46.735Z,8.52
2023-02-27T14:29:31.357Z,6.50
2023-02-27T14:32:04.533Z,7.22
2023-02-27T14:34:32.284Z,7.53
2023-02-27T14:37:01.624Z,8.25
2023-02-27T14:39:32.209Z,9.88
2023-02-27T14:41:59.908Z,8.20
2023-02-27T14:44:28.907Z,7.80
2023-02-27T14:46:57.725Z,9.07
2023-02-27T14:49:35.910Z,7.10
2023-02-27T14:52:12.735Z,7.60
2023-02-27T14:54:40.298Z,8.85
2023-02-27T14:57:08.084Z,10.98
2023-02-27T14:59:42.813Z,12.95
2023-02-27T15:02:17.711Z,7.70
2023-02-27T15:04:45.553Z,9.93
2023-02-27T15:07:26.899Z,11.43
2023-02-27T15:09:56.394Z,12.98
2023-02-27T15:12:24.469Z,10.00
2023-02-27T15:14:53.811Z,9.02
2023-02-27T15:17:23.371Z,9.30
2023-02-27T15:19:50.956Z,11.40
2023-02-27T15:22:36.194Z,10.00
2023-02-27T15:25:07.749Z,11.38
2023-02-27T15:27:37.607Z,11.55
2023-02-27T15:30:06.036Z,12.45
2023-02-27T15:32:35.210Z,8.07
2023-02-27T15:35:12.449Z,15.95
2023-02-27T15:37:39.905Z,9.30
2023-02-27T15:40:10.087Z,13.07
2023-02-27T15:42:40.454Z,11.73
2023-02-27T15:45:08.397Z,14.63
2023-02-27T15:47:36.438Z,12.05
2023-02-27T15:50:11.168Z,11.98
2023-02-27T15:52:43.476Z,13.15
2023-02-27T15:55:14.310Z,12.52
2023-02-27T15:57:47.520Z,11.60
2023-02-27T16:00:23.038Z,11.63
2023-02-27T16:02:52.292Z,10.68
2023-02-27T16:05:21.935Z,11.20
2023-02-27T16:07:50.027Z,9.57
2023-02-27T16:10:21.822Z,9.80
2023-02-27T16:12:49.568Z,10.07
2023-02-27T16:15:33.573Z,8.25
2023-02-27T16:18:04.605Z,11.13
2023-02-27T16:20:47.660Z,10.75
2023-02-27T16:23:28.554Z,9.77
2023-02-27T16:26:06.739Z,12.63
2023-02-27T16:28:35.812Z,9.93
2023-02-27T16:31:03.308Z,12.60
2023-02-27T16:33:33.584Z,14.00
2023-02-27T16:36:08.443Z,11.15
2023-02-27T16:38:35.873Z,10.80
2023-02-27T16:41:03.622Z,9.10
2023-02-27T16:43:33.535Z,12.32
2023-02-27T16:46:01.071Z,14.07
2023-02-27T16:48:28.493Z,10.70
2023-02-27T16:50:55.966Z,10.40
2023-02-27T16:53:23.405Z,12.32
2023-02-27T16:55:51.018Z,10.80
2023-02-27T16:58:18.951Z,11.63
2023-02-27T17:00:46.368Z,10.77
2023-02-27T17:03:14.466Z,12.82
2023-02-27T17:05:41.896Z,12.45
2023-02-27T17:08:10.394Z,11.13
2023-02-27T17:10:37.852Z,11.15
2023-02-27T17:13:05.246Z,11.32
2023-02-27T17:15:32.659Z,11.25
2023-02-27T17:18:00.048Z,10.30
2023-02-27T17:20:30.225Z,11.98
2023-02-27T17:22:57.918Z,12.43
2023-02-27T17:25:26.376Z,13.55
2023-02-27T17:27:53.933Z,14.00
2023-02-27T17:30:21.495Z,16.08
2023-02-27T17:32:49.013Z,15.60
2023-02-27T17:35:16.458Z,14.50
2023-02-27T17:37:43.997Z,10.23
2023-02-27T17:40:12.413Z,11.48
2023-02-27T17:42:40.878Z,25.70
2023-02-27T17:45:08.733Z,29.73
2023-02-27T17:47:36.328Z,27.63
2023-02-27T17:50:04.563Z,26.98
2023-02-27T17:52:31.973Z,26.42
2023-02-27T17:54:59.385Z,26.48
2023-02-27T17:57:26.805Z,29.13
2023-02-27T17:59:54.360Z,25.70
2023-02-27T18:02:21.865Z,23.42
2023-02-27T18:04:49.441Z,23.23
2023-02-27T18:07:16.853Z,26.25
2023-02-27T18:09:46.551Z,25.80
2023-02-27T18:12:14.393Z,25.73
2023-02-27T18:14:42.130Z,29.88
2023-02-27T18:17:12.700Z,31.27
2023-02-27T18:19:41.735Z,28.90
2023-02-27T18:22:09.650Z,27.35
2023-02-27T18:24:37.982Z,23.05
2023-02-27T18:27:05.524Z,19.92
2023-02-27T18:29:33.275Z,25.63
2023-02-27T18:32:00.819Z,23.48
2023-02-27T18:34:28.335Z,24.60
2023-02-27T18:36:58.131Z,25.90
2023-02-27T18:39:25.974Z,25.48
2023-02-27T18:41:53.402Z,24.88
2023-02-27T18:44:20.906Z,25.83
2023-02-27T18:46:48.451Z,24.52
2023-02-27T18:49:16.083Z,30.65
2023-02-27T18:51:44.700Z,23.05
2023-02-27T18:54:15.157Z,23.33
2023-02-27T18:56:42.892Z,25.63
2023-02-27T18:59:12.140Z,18.00
2023-02-27T19:01:39.854Z,15.98
2023-02-27T19:04:08.240Z,22.05
2023-02-27T19:06:42.697Z,19.02
2023-02-27T19:09:11.918Z,18.48
2023-02-27T19:11:39.408Z,17.17
2023-02-27T19:14:08.793Z,13.90
2023-02-27T19:16:36.557Z,14.23
2023-02-27T19:19:05.009Z,13.85
2023-02-27T19:21:32.934Z,18.13
2023-02-27T19:24:00.490Z,15.48
2023-02-27T19:26:28.343Z,20.65
2023-02-27T19:28:56.383Z,14.07
2023-02-27T19:31:24.923Z,17.23
2023-02-27T19:33:52.652Z,13.88
2023-02-27T19:36:21.138Z,16.85
2023-02-27T19:38:49.126Z,17.42
2023-02-27T19:41:16.972Z,14.13
2023-02-27T19:43:45.071Z,17.67
2023-02-27T19:46:17.090Z,14.43
2023-02-27T19:48:45.409Z,16.85
2023-02-27T19:51:13.877Z,16.35
2023-02-27T19:53:42.456Z,15.00
2023-02-27T19:56:14.470Z,16.33
2023-02-27T19:58:42.395Z,16.48
2023-02-27T20:01:10.818Z,18.77
2023-02-27T20:03:43.146Z,17.80
2023-02-27T20:06:21.637Z,16.50
2023-02-27T20:08:49.108Z,15.30
2023-02-27T20:11:17.524Z,19.65
2023-02-27T20:13:45.653Z,14.27
2023-02-27T20:16:14.515Z,14.82
2023-02-27T20:18:42.731Z,12.48
2023-02-27T20:21:11.778Z,19.50
2023-02-27T20:23:40.274Z,15.27
2023-02-27T20:26:19.912Z,17.20
2023-02-27T20:28:48.576Z,14.85
2023-02-27T20:31:18.825Z,16.98
2023-02-27T20:33:46.502Z,14.80
2023-02-27T20:36:14.210Z,15.32
2023-02-27T20:38:42.247Z,14.68
2023-02-27T20:41:11.055Z,15.02
2023-02-27T20:43:38.987Z,14.77
2023-02-27T20:46:07.498Z,14.32
2023-02-27T20:48:34.979Z,15.20
2023-02-27T20:51:09.486Z,13.45
2023-02-27T20:53:38.523Z,12.60
2023-02-27T20:56:06.636Z,14.75
2023-02-27T20:58:34.384Z,11.30
2023-02-27T21:01:04.803Z,13.80
2023-02-27T21:03:38.627Z,13.23
2023-02-27T21:06:11.696Z,15.20
2023-02-27T21:08:39.931Z,13.15
2023-02-27T21:11:18.126Z,11.65
2023-02-27T21:13:50.028Z,13.32
2023-02-27T21:16:18.620Z,13.18
2023-02-27T21:18:46.259Z,13.13
2023-02-27T21:21:18.682Z,12.90
2023-02-27T21:23:46.449Z,10.93
2023-02-27T21:26:16.726Z,11.00
2023-02-27T21:28:47.909Z,8.77
2023-02-27T21:31:16.387Z,7.55
2023-02-27T21:33:43.863Z,7.15
2023-02-27T21:36:11.823Z,5.45
2023-02-27T21:38:39.802Z,6.63
2023-02-27T21:41:11.432Z,8.25
2023-02-27T21:43:42.333Z,6.38
2023-02-27T21:46:11.569Z,6.45
2023-02-27T21:48:39.561Z,7.38
2023-02-27T21:51:07.472Z,6.70
2023-02-27T21:53:36.664Z,7.80
2023-02-27T21:56:06.119Z,7.45
2023-02-27T21:58:33.937Z,6.28
2023-02-27T22:01:01.665Z,8.82
2023-02-27T22:03:35.334Z,5.68
2023-02-27T22:06:03.020Z,5.38
2023-02-27T22:08:30.396Z,5.32
2023-02-27T22:10:58.786Z,6.47
2023-02-27T22:13:26.468Z,6.18
2023-02-27T22:15:54.189Z,6.63
2023-02-27T22:18:21.664Z,6.32
2023-02-27T22:20:49.239Z,5.35
2023-02-27T22:23:16.956Z,6.28
2023-02-27T22:25:44.342Z,10.25
2023-02-27T22:28:11.686Z,6.57
2023-02-27T22:30:39.151Z,7.10
2023-02-27T22:33:06.598Z,7.95
2023-02-27T22:35:34.039Z,7.28
2023-02-27T22:38:01.568Z,6.95
2023-02-27T22:40:29.624Z,8.07
2023-02-27T22:42:57.130Z,9.30
2023-02-27T22:45:24.495Z,8.60
2023-02-27T22:47:51.972Z,7.90
2023-02-27T22:50:21.604Z,11.90
2023-02-27T22:52:49.073Z,9.05
2023-02-27T22:55:16.513Z,7.22
2023-02-27T22:57:43.914Z,7.10
2023-02-27T23:00:11.793Z,8.63
2023-02-27T23:02:41.048Z,7.93
2023-02-27T23:05:08.648Z,8.35
2023-02-27T23:07:36.061Z,6.30
2023-02-27T23:10:09.656Z,9.93
2023-02-27T23:12:37.288Z,6.93
2023-02-27T23:15:04.790Z,7.78
2023-02-27T23:17:33.106Z,8.23
2023-02-27T23:20:00.920Z,9.02
2023-02-27T23:22:33.387Z,9.85
2023-02-27T23:25:03.484Z,10.32
2023-02-27T23:27:30.942Z,9.63
2023-02-27T23:29:58.343Z,10.02
2023-02-27T23:32:25.875Z,7.30
2023-02-27T23:34:53.329Z,8.45
2023-02-27T23:37:20.837Z,9.32
2023-02-27T23:39:48.237Z,8.88
2023-02-27T23:42:15.777Z,8.10
2023-02-27T23:44:43.101Z,7.82
2023-02-27T23:47:10.569Z,7.90
2023-02-27T23:49:38.000Z,7.53
2023-02-27T23:52:05.558Z,8.15
2023-02-27T23:54:33.065Z,7.05
2023-02-27T23:57:00.494Z,9.40
2023-02-27T23:59:28.664Z,8.70
